sensor_id;sensor_type;location;lat;lon;timestamp;P1;durP1;ratioP1;P2;durP2;ratioP2
51985;SDS011;38002;53.296;6.600;2023-04-06T00:01:58;12.43;;;7.22;;
51985;SDS011;38002;53.296;6.600;2023-04-06T00:06:58;9.25;;;6.78;;
51985;SDS011;38002;53.296;6.600;2023-04-06T00:11:59;10.25;;;7.22;;
51985;SDS011;38002;53.296;6.600;2023-04-06T00:17:00;10.60;;;6.83;;
51985;SDS011;38002;53.296;6.600;2023-04-06T00:22:00;9.85;;;7.28;;
51985;SDS011;38002;53.296;6.600;2023-04-06T00:27:02;10.38;;;7.68;;
51985;SDS011;38002;53.296;6.600;2023-04-06T00:32:02;9.65;;;7.55;;
51985;SDS011;38002;53.296;6.600;2023-04-06T00:37:03;10.77;;;7.32;;
51985;SDS011;38002;53.296;6.600;2023-04-06T00:42:07;10.07;;;7.35;;
51985;SDS011;38002;53.296;6.600;2023-04-06T00:47:15;8.70;;;6.57;;
51985;SDS011;38002;53.296;6.600;2023-04-06T00:52:15;11.40;;;7.18;;
51985;SDS011;38002;53.296;6.600;2023-04-06T00:57:16;8.82;;;6.88;;
51985;SDS011;38002;53.296;6.600;2023-04-06T01:02:17;11.65;;;8.20;;
51985;SDS011;38002;53.296;6.600;2023-04-06T01:07:18;11.05;;;7.28;;
51985;SDS011;38002;53.296;6.600;2023-04-06T01:12:18;8.80;;;6.55;;
51985;SDS011;38002;53.296;6.600;2023-04-06T01:17:19;11.85;;;7.72;;
51985;SDS011;38002;53.296;6.600;2023-04-06T01:22:20;10.75;;;7.45;;
51985;SDS011;38002;53.296;6.600;2023-04-06T01:27:20;14.43;;;8.55;;
51985;SDS011;38002;53.296;6.600;2023-04-06T01:32:21;9.68;;;7.30;;
51985;SDS011;38002;53.296;6.600;2023-04-06T01:37:21;11.50;;;8.63;;
51985;SDS011;38002;53.296;6.600;2023-04-06T01:42:21;11.75;;;8.57;;
51985;SDS011;38002;53.296;6.600;2023-04-06T01:47:22;15.43;;;8.40;;
51985;SDS011;38002;53.296;6.600;2023-04-06T01:52:22;13.20;;;8.88;;
51985;SDS011;38002;53.296;6.600;2023-04-06T01:57:23;13.68;;;7.57;;
51985;SDS011;38002;53.296;6.600;2023-04-06T02:02:23;13.13;;;8.77;;
51985;SDS011;38002;53.296;6.600;2023-04-06T02:07:24;10.55;;;7.93;;
51985;SDS011;38002;53.296;6.600;2023-04-06T02:12:24;11.65;;;7.90;;
51985;SDS011;38002;53.296;6.600;2023-04-06T02:17:25;9.25;;;7.53;;
51985;SDS011;38002;53.296;6.600;2023-04-06T02:22:26;12.15;;;8.18;;
51985;SDS011;38002;53.296;6.600;2023-04-06T02:27:26;14.35;;;8.48;;
51985;SDS011;38002;53.296;6.600;2023-04-06T02:32:27;11.57;;;8.63;;
51985;SDS011;38002;53.296;6.600;2023-04-06T02:37:27;11.88;;;8.43;;
51985;SDS011;38002;53.296;6.600;2023-04-06T02:42:28;13.68;;;8.52;;
51985;SDS011;38002;53.296;6.600;2023-04-06T02:47:28;11.75;;;8.23;;
51985;SDS011;38002;53.296;6.600;2023-04-06T02:52:29;15.98;;;9.70;;
51985;SDS011;38002;53.296;6.600;2023-04-06T02:57:29;13.02;;;9.60;;
51985;SDS011;38002;53.296;6.600;2023-04-06T03:02:30;12.90;;;8.20;;
51985;SDS011;38002;53.296;6.600;2023-04-06T03:07:30;13.95;;;9.55;;
51985;SDS011;38002;53.296;6.600;2023-04-06T03:12:31;16.55;;;9.32;;
51985;SDS011;38002;53.296;6.600;2023-04-06T03:17:31;15.80;;;9.43;;
51985;SDS011;38002;53.296;6.600;2023-04-06T03:22:32;10.80;;;8.43;;
51985;SDS011;38002;53.296;6.600;2023-04-06T03:27:32;14.68;;;9.68;;
51985;SDS011;38002;53.296;6.600;2023-04-06T03:32:33;13.55;;;9.90;;
51985;SDS011;38002;53.296;6.600;2023-04-06T03:37:33;15.52;;;10.65;;
51985;SDS011;38002;53.296;6.600;2023-04-06T03:42:33;17.95;;;9.98;;
51985;SDS011;38002;53.296;6.600;2023-04-06T03:47:34;17.75;;;10.90;;
51985;SDS011;38002;53.296;6.600;2023-04-06T03:52:34;12.90;;;9.05;;
51985;SDS011;38002;53.296;6.600;2023-04-06T03:57:36;21.37;;;10.20;;
51985;SDS011;38002;53.296;6.600;2023-04-06T04:02:37;14.23;;;10.25;;
51985;SDS011;38002;53.296;6.600;2023-04-06T04:07:38;14.68;;;9.82;;
51985;SDS011;38002;53.296;6.600;2023-04-06T04:12:38;13.27;;;9.38;;
51985;SDS011;38002;53.296;6.600;2023-04-06T04:17:38;17.95;;;10.05;;
51985;SDS011;38002;53.296;6.600;2023-04-06T04:22:40;17.13;;;10.05;;
51985;SDS011;38002;53.296;6.600;2023-04-06T04:27:40;21.70;;;11.37;;
51985;SDS011;38002;53.296;6.600;2023-04-06T04:32:41;14.40;;;9.88;;
51985;SDS011;38002;53.296;6.600;2023-04-06T04:37:41;14.38;;;10.00;;
51985;SDS011;38002;53.296;6.600;2023-04-06T04:42:42;16.73;;;9.63;;
51985;SDS011;38002;53.296;6.600;2023-04-06T04:47:42;16.15;;;9.65;;
51985;SDS011;38002;53.296;6.600;2023-04-06T04:52:43;15.20;;;10.68;;
51985;SDS011;38002;53.296;6.600;2023-04-06T04:57:43;14.15;;;9.60;;
51985;SDS011;38002;53.296;6.600;2023-04-06T05:02:44;13.38;;;9.93;;
51985;SDS011;38002;53.296;6.600;2023-04-06T05:07:44;13.48;;;9.48;;
51985;SDS011;38002;53.296;6.600;2023-04-06T05:12:45;15.68;;;9.60;;
51985;SDS011;38002;53.296;6.600;2023-04-06T05:17:46;17.10;;;10.38;;
51985;SDS011;38002;53.296;6.600;2023-04-06T05:22:46;14.85;;;9.82;;
51985;SDS011;38002;53.296;6.600;2023-04-06T05:27:47;11.73;;;8.32;;
51985;SDS011;38002;53.296;6.600;2023-04-06T05:32:47;18.05;;;11.20;;
51985;SDS011;38002;53.296;6.600;2023-04-06T05:37:48;14.10;;;9.32;;
51985;SDS011;38002;53.296;6.600;2023-04-06T05:42:48;16.20;;;10.15;;
51985;SDS011;38002;53.296;6.600;2023-04-06T05:47:49;14.98;;;9.93;;
51985;SDS011;38002;53.296;6.600;2023-04-06T05:52:50;15.38;;;9.07;;
51985;SDS011;38002;53.296;6.600;2023-04-06T05:57:50;14.82;;;9.90;;
51985;SDS011;38002;53.296;6.600;2023-04-06T06:02:51;10.90;;;8.27;;
51985;SDS011;38002;53.296;6.600;2023-04-06T06:07:51;12.15;;;9.07;;
51985;SDS011;38002;53.296;6.600;2023-04-06T06:12:52;13.43;;;8.65;;
51985;SDS011;38002;53.296;6.600;2023-04-06T06:17:52;12.30;;;8.32;;
51985;SDS011;38002;53.296;6.600;2023-04-06T06:22:53;12.50;;;8.82;;
51985;SDS011;38002;53.296;6.600;2023-04-06T06:27:53;18.10;;;8.90;;
51985;SDS011;38002;53.296;6.600;2023-04-06T06:32:53;11.50;;;7.70;;
51985;SDS011;38002;53.296;6.600;2023-04-06T06:37:54;12.27;;;8.68;;
51985;SDS011;38002;53.296;6.600;2023-04-06T06:42:55;16.05;;;7.90;;
51985;SDS011;38002;53.296;6.600;2023-04-06T06:47:55;16.20;;;9.00;;
51985;SDS011;38002;53.296;6.600;2023-04-06T06:52:56;11.73;;;8.35;;
51985;SDS011;38002;53.296;6.600;2023-04-06T06:57:56;11.25;;;8.15;;
51985;SDS011;38002;53.296;6.600;2023-04-06T07:02:57;13.35;;;8.55;;
51985;SDS011;38002;53.296;6.600;2023-04-06T07:07:57;15.48;;;9.02;;
51985;SDS011;38002;53.296;6.600;2023-04-06T07:12:58;11.70;;;8.30;;
51985;SDS011;38002;53.296;6.600;2023-04-06T07:17:58;11.32;;;8.73;;
51985;SDS011;38002;53.296;6.600;2023-04-06T07:22:59;15.88;;;9.30;;
51985;SDS011;38002;53.296;6.600;2023-04-06T07:27:59;12.63;;;8.93;;
51985;SDS011;38002;53.296;6.600;2023-04-06T07:33:00;20.17;;;9.45;;
51985;SDS011;38002;53.296;6.600;2023-04-06T07:38:01;11.70;;;8.90;;
51985;SDS011;38002;53.296;6.600;2023-04-06T07:43:02;14.18;;;9.65;;
51985;SDS011;38002;53.296;6.600;2023-04-06T07:48:03;11.48;;;9.25;;
51985;SDS011;38002;53.296;6.600;2023-04-06T07:53:03;11.10;;;8.23;;
51985;SDS011;38002;53.296;6.600;2023-04-06T07:58:05;11.83;;;9.60;;
51985;SDS011;38002;53.296;6.600;2023-04-06T08:03:05;16.88;;;8.85;;
51985;SDS011;38002;53.296;6.600;2023-04-06T08:08:07;11.87;;;8.83;;
51985;SDS011;38002;53.296;6.600;2023-04-06T08:13:07;10.02;;;8.18;;
51985;SDS011;38002;53.296;6.600;2023-04-06T08:18:08;19.35;;;9.05;;
51985;SDS011;38002;53.296;6.600;2023-04-06T08:23:09;14.05;;;8.82;;
51985;SDS011;38002;53.296;6.600;2023-04-06T08:28:11;12.48;;;9.02;;
51985;SDS011;38002;53.296;6.600;2023-04-06T08:33:11;9.43;;;7.88;;
51985;SDS011;38002;53.296;6.600;2023-04-06T08:38:12;9.43;;;7.28;;
51985;SDS011;38002;53.296;6.600;2023-04-06T08:43:13;12.90;;;8.15;;
51985;SDS011;38002;53.296;6.600;2023-04-06T08:48:14;11.38;;;8.05;;
51985;SDS011;38002;53.296;6.600;2023-04-06T08:53:15;11.40;;;7.63;;
51985;SDS011;38002;53.296;6.600;2023-04-06T08:58:16;11.38;;;8.23;;
51985;SDS011;38002;53.296;6.600;2023-04-06T09:03:17;12.52;;;8.80;;
51985;SDS011;38002;53.296;6.600;2023-04-06T09:08:18;19.65;;;8.05;;
51985;SDS011;38002;53.296;6.600;2023-04-06T09:13:19;10.80;;;7.63;;
51985;SDS011;38002;53.296;6.600;2023-04-06T09:18:27;14.07;;;8.10;;
51985;SDS011;38002;53.296;6.600;2023-04-06T09:23:31;10.93;;;7.40;;
51985;SDS011;38002;53.296;6.600;2023-04-06T09:33:55;13.18;;;7.55;;
51985;SDS011;38002;53.296;6.600;2023-04-06T09:39:03;14.50;;;7.85;;
51985;SDS011;38002;53.296;6.600;2023-04-06T09:44:08;12.00;;;8.20;;
51985;SDS011;38002;53.296;6.600;2023-04-06T09:49:10;13.20;;;8.07;;
51985;SDS011;38002;53.296;6.600;2023-04-06T09:54:11;16.17;;;8.07;;
51985;SDS011;38002;53.296;6.600;2023-04-06T09:59:21;11.82;;;9.05;;
51985;SDS011;38002;53.296;6.600;2023-04-06T10:04:43;13.90;;;8.40;;
51985;SDS011;38002;53.296;6.600;2023-04-06T10:09:53;15.00;;;9.02;;
51985;SDS011;38002;53.296;6.600;2023-04-06T10:14:57;11.60;;;8.73;;
51985;SDS011;38002;53.296;6.600;2023-04-06T10:20:03;25.63;;;15.65;;
51985;SDS011;38002;53.296;6.600;2023-04-06T10:25:09;27.60;;;15.00;;
51985;SDS011;38002;53.296;6.600;2023-04-06T10:30:09;16.45;;;12.75;;
51985;SDS011;38002;53.296;6.600;2023-04-06T10:35:10;16.73;;;11.05;;
51985;SDS011;38002;53.296;6.600;2023-04-06T10:40:21;16.20;;;10.20;;
51985;SDS011;38002;53.296;6.600;2023-04-06T10:45:25;22.10;;;11.77;;
51985;SDS011;38002;53.296;6.600;2023-04-06T10:55:28;35.88;;;23.15;;
51985;SDS011;38002;53.296;6.600;2023-04-06T11:00:29;15.33;;;10.80;;
51985;SDS011;38002;53.296;6.600;2023-04-06T11:05:30;15.02;;;11.23;;
51985;SDS011;38002;53.296;6.600;2023-04-06T11:10:31;15.97;;;10.77;;
51985;SDS011;38002;53.296;6.600;2023-04-06T11:15:33;17.13;;;11.18;;
51985;SDS011;38002;53.296;6.600;2023-04-06T11:20:35;19.52;;;12.10;;
51985;SDS011;38002;53.296;6.600;2023-04-06T11:25:35;18.65;;;12.10;;
51985;SDS011;38002;53.296;6.600;2023-04-06T11:30:36;18.45;;;12.35;;
51985;SDS011;38002;53.296;6.600;2023-04-06T11:35:36;32.20;;;19.20;;
51985;SDS011;38002;53.296;6.600;2023-04-06T11:40:37;21.63;;;13.80;;
51985;SDS011;38002;53.296;6.600;2023-04-06T11:45:41;24.80;;;13.68;;
51985;SDS011;38002;53.296;6.600;2023-04-06T11:50:43;25.60;;;15.57;;
51985;SDS011;38002;53.296;6.600;2023-04-06T11:55:47;26.48;;;16.50;;
51985;SDS011;38002;53.296;6.600;2023-04-06T12:00:48;24.80;;;16.40;;
51985;SDS011;38002;53.296;6.600;2023-04-06T12:05:48;30.00;;;16.02;;
51985;SDS011;38002;53.296;6.600;2023-04-06T12:10:49;55.45;;;27.98;;
51985;SDS011;38002;53.296;6.600;2023-04-06T12:15:50;27.00;;;16.63;;
51985;SDS011;38002;53.296;6.600;2023-04-06T12:20:51;29.90;;;20.00;;
51985;SDS011;38002;53.296;6.600;2023-04-06T12:25:51;26.87;;;16.17;;
51985;SDS011;38002;53.296;6.600;2023-04-06T12:30:52;24.65;;;16.98;;
51985;SDS011;38002;53.296;6.600;2023-04-06T12:35:53;23.35;;;15.40;;
51985;SDS011;38002;53.296;6.600;2023-04-06T12:40:54;27.43;;;17.17;;
51985;SDS011;38002;53.296;6.600;2023-04-06T12:45:54;24.92;;;16.50;;
51985;SDS011;38002;53.296;6.600;2023-04-06T12:50:57;29.93;;;17.67;;
51985;SDS011;38002;53.296;6.600;2023-04-06T12:55:58;28.38;;;16.70;;
51985;SDS011;38002;53.296;6.600;2023-04-06T13:00:59;26.02;;;16.20;;
51985;SDS011;38002;53.296;6.600;2023-04-06T13:06:03;23.27;;;14.65;;
51985;SDS011;38002;53.296;6.600;2023-04-06T13:11:04;23.05;;;15.98;;
51985;SDS011;38002;53.296;6.600;2023-04-06T13:16:08;27.70;;;17.03;;
51985;SDS011;38002;53.296;6.600;2023-04-06T13:21:12;26.10;;;15.55;;
51985;SDS011;38002;53.296;6.600;2023-04-06T13:26:16;26.38;;;16.27;;
51985;SDS011;38002;53.296;6.600;2023-04-06T13:31:17;22.75;;;15.25;;
51985;SDS011;38002;53.296;6.600;2023-04-06T13:36:18;27.80;;;16.00;;
51985;SDS011;38002;53.296;6.600;2023-04-06T13:41:22;29.65;;;16.48;;
51985;SDS011;38002;53.296;6.600;2023-04-06T13:46:24;25.40;;;16.00;;
51985;SDS011;38002;53.296;6.600;2023-04-06T13:51:25;28.30;;;16.63;;
51985;SDS011;38002;53.296;6.600;2023-04-06T13:56:26;24.55;;;16.38;;
51985;SDS011;38002;53.296;6.600;2023-04-06T14:01:27;24.85;;;15.15;;
51985;SDS011;38002;53.296;6.600;2023-04-06T14:06:27;25.35;;;13.98;;
51985;SDS011;38002;53.296;6.600;2023-04-06T14:11:28;26.10;;;14.90;;
51985;SDS011;38002;53.296;6.600;2023-04-06T14:16:28;26.48;;;16.67;;
51985;SDS011;38002;53.296;6.600;2023-04-06T14:21:28;26.65;;;15.75;;
51985;SDS011;38002;53.296;6.600;2023-04-06T14:26:29;25.15;;;16.58;;
51985;SDS011;38002;53.296;6.600;2023-04-06T14:31:30;22.75;;;12.98;;
51985;SDS011;38002;53.296;6.600;2023-04-06T14:36:31;19.80;;;12.93;;
51985;SDS011;38002;53.296;6.600;2023-04-06T14:41:38;17.63;;;12.05;;
51985;SDS011;38002;53.296;6.600;2023-04-06T14:46:39;22.92;;;13.63;;
51985;SDS011;38002;53.296;6.600;2023-04-06T14:51:40;19.00;;;12.68;;
51985;SDS011;38002;53.296;6.600;2023-04-06T14:56:40;23.17;;;11.90;;
51985;SDS011;38002;53.296;6.600;2023-04-06T15:01:42;19.63;;;12.30;;
51985;SDS011;38002;53.296;6.600;2023-04-06T15:06:43;20.75;;;11.93;;
51985;SDS011;38002;53.296;6.600;2023-04-06T15:11:43;17.55;;;11.38;;
51985;SDS011;38002;53.296;6.600;2023-04-06T15:16:44;23.38;;;13.93;;
51985;SDS011;38002;53.296;6.600;2023-04-06T15:21:44;17.45;;;10.85;;
51985;SDS011;38002;53.296;6.600;2023-04-06T15:26:44;14.35;;;9.80;;
51985;SDS011;38002;53.296;6.600;2023-04-06T15:31:45;16.40;;;11.80;;
51985;SDS011;38002;53.296;6.600;2023-04-06T15:36:46;17.10;;;11.57;;
51985;SDS011;38002;53.296;6.600;2023-04-06T15:41:47;16.60;;;10.35;;
51985;SDS011;38002;53.296;6.600;2023-04-06T15:46:47;14.68;;;9.45;;
51985;SDS011;38002;53.296;6.600;2023-04-06T15:51:48;15.55;;;10.15;;
51985;SDS011;38002;53.296;6.600;2023-04-06T15:56:49;16.27;;;10.13;;
51985;SDS011;38002;53.296;6.600;2023-04-06T16:01:50;14.73;;;9.68;;
51985;SDS011;38002;53.296;6.600;2023-04-06T16:06:50;14.45;;;9.75;;
51985;SDS011;38002;53.296;6.600;2023-04-06T16:11:51;14.60;;;9.98;;
51985;SDS011;38002;53.296;6.600;2023-04-06T16:16:51;15.02;;;10.45;;
51985;SDS011;38002;53.296;6.600;2023-04-06T16:21:52;17.08;;;10.93;;
51985;SDS011;38002;53.296;6.600;2023-04-06T16:26:52;14.40;;;9.20;;
51985;SDS011;38002;53.296;6.600;2023-04-06T16:31:53;16.10;;;10.48;;
51985;SDS011;38002;53.296;6.600;2023-04-06T16:36:54;16.48;;;10.50;;
51985;SDS011;38002;53.296;6.600;2023-04-06T16:41:55;15.40;;;11.32;;
51985;SDS011;38002;53.296;6.600;2023-04-06T16:46:56;16.13;;;11.02;;
51985;SDS011;38002;53.296;6.600;2023-04-06T16:51:56;16.75;;;11.55;;
51985;SDS011;38002;53.296;6.600;2023-04-06T16:57:01;18.90;;;11.55;;
51985;SDS011;38002;53.296;6.600;2023-04-06T17:02:01;19.05;;;11.73;;
51985;SDS011;38002;53.296;6.600;2023-04-06T17:07:02;18.17;;;10.35;;
51985;SDS011;38002;53.296;6.600;2023-04-06T17:12:03;17.25;;;12.15;;
51985;SDS011;38002;53.296;6.600;2023-04-06T17:17:03;18.13;;;13.50;;
51985;SDS011;38002;53.296;6.600;2023-04-06T17:22:04;17.63;;;11.80;;
51985;SDS011;38002;53.296;6.600;2023-04-06T17:27:04;17.17;;;12.57;;
51985;SDS011;38002;53.296;6.600;2023-04-06T17:32:05;18.52;;;11.65;;
51985;SDS011;38002;53.296;6.600;2023-04-06T17:37:06;13.73;;;9.10;;
51985;SDS011;38002;53.296;6.600;2023-04-06T17:42:07;13.80;;;8.90;;
51985;SDS011;38002;53.296;6.600;2023-04-06T17:47:08;13.75;;;8.82;;
51985;SDS011;38002;53.296;6.600;2023-04-06T17:52:08;10.85;;;8.07;;
51985;SDS011;38002;53.296;6.600;2023-04-06T17:57:09;14.55;;;8.93;;
51985;SDS011;38002;53.296;6.600;2023-04-06T18:02:10;13.10;;;8.73;;
51985;SDS011;38002;53.296;6.600;2023-04-06T18:07:10;16.90;;;10.00;;
51985;SDS011;38002;53.296;6.600;2023-04-06T18:12:11;13.98;;;9.52;;
51985;SDS011;38002;53.296;6.600;2023-04-06T18:17:11;13.35;;;9.93;;
51985;SDS011;38002;53.296;6.600;2023-04-06T18:22:12;17.30;;;11.35;;
51985;SDS011;38002;53.296;6.600;2023-04-06T18:27:12;16.50;;;11.32;;
51985;SDS011;38002;53.296;6.600;2023-04-06T18:32:13;16.05;;;11.38;;
51985;SDS011;38002;53.296;6.600;2023-04-06T18:37:17;14.35;;;11.10;;
51985;SDS011;38002;53.296;6.600;2023-04-06T18:42:18;17.80;;;12.27;;
51985;SDS011;38002;53.296;6.600;2023-04-06T18:47:18;19.50;;;12.00;;
51985;SDS011;38002;53.296;6.600;2023-04-06T18:52:19;21.00;;;13.07;;
51985;SDS011;38002;53.296;6.600;2023-04-06T18:57:19;19.00;;;12.35;;
51985;SDS011;38002;53.296;6.600;2023-04-06T19:02:20;19.65;;;13.00;;
51985;SDS011;38002;53.296;6.600;2023-04-06T19:07:20;21.58;;;12.65;;
51985;SDS011;38002;53.296;6.600;2023-04-06T19:12:21;20.47;;;13.97;;
51985;SDS011;38002;53.296;6.600;2023-04-06T19:17:22;25.00;;;15.25;;
51985;SDS011;38002;53.296;6.600;2023-04-06T19:22:23;22.20;;;13.70;;
51985;SDS011;38002;53.296;6.600;2023-04-06T19:27:23;25.83;;;15.50;;
51985;SDS011;38002;53.296;6.600;2023-04-06T19:32:24;20.05;;;13.18;;
51985;SDS011;38002;53.296;6.600;2023-04-06T19:37:24;32.63;;;16.42;;
51985;SDS011;38002;53.296;6.600;2023-04-06T19:42:25;23.30;;;14.23;;
51985;SDS011;38002;53.296;6.600;2023-04-06T19:47:25;27.35;;;16.58;;
51985;SDS011;38002;53.296;6.600;2023-04-06T19:52:26;26.52;;;15.18;;
51985;SDS011;38002;53.296;6.600;2023-04-06T19:57:26;30.02;;;18.23;;
51985;SDS011;38002;53.296;6.600;2023-04-06T20:02:27;29.23;;;17.40;;
51985;SDS011;38002;53.296;6.600;2023-04-06T20:07:27;35.45;;;19.58;;
51985;SDS011;38002;53.296;6.600;2023-04-06T20:12:28;28.80;;;17.77;;
51985;SDS011;38002;53.296;6.600;2023-04-06T20:17:28;28.85;;;16.23;;
51985;SDS011;38002;53.296;6.600;2023-04-06T20:22:29;26.23;;;15.60;;
51985;SDS011;38002;53.296;6.600;2023-04-06T20:27:30;25.60;;;16.33;;
51985;SDS011;38002;53.296;6.600;2023-04-06T20:32:30;31.17;;;16.63;;
51985;SDS011;38002;53.296;6.600;2023-04-06T20:42:34;24.80;;;15.82;;
51985;SDS011;38002;53.296;6.600;2023-04-06T20:52:36;25.38;;;16.20;;
51985;SDS011;38002;53.296;6.600;2023-04-06T20:57:37;24.23;;;14.80;;
51985;SDS011;38002;53.296;6.600;2023-04-06T21:02:37;25.90;;;16.17;;
51985;SDS011;38002;53.296;6.600;2023-04-06T21:07:37;33.75;;;18.67;;
51985;SDS011;38002;53.296;6.600;2023-04-06T21:12:38;24.30;;;16.42;;
51985;SDS011;38002;53.296;6.600;2023-04-06T21:17:38;28.92;;;17.67;;
51985;SDS011;38002;53.296;6.600;2023-04-06T21:22:39;32.78;;;17.50;;
51985;SDS011;38002;53.296;6.600;2023-04-06T21:27:42;29.02;;;17.77;;
51985;SDS011;38002;53.296;6.600;2023-04-06T21:32:42;27.73;;;18.75;;
51985;SDS011;38002;53.296;6.600;2023-04-06T21:37:42;28.08;;;17.95;;
51985;SDS011;38002;53.296;6.600;2023-04-06T21:42:43;32.97;;;19.38;;
51985;SDS011;38002;53.296;6.600;2023-04-06T21:47:43;30.38;;;18.85;;
51985;SDS011;38002;53.296;6.600;2023-04-06T21:52:44;30.15;;;18.50;;
51985;SDS011;38002;53.296;6.600;2023-04-06T21:57:44;28.95;;;18.35;;
51985;SDS011;38002;53.296;6.600;2023-04-06T22:02:44;27.55;;;17.48;;
51985;SDS011;38002;53.296;6.600;2023-04-06T22:07:45;27.13;;;17.75;;
51985;SDS011;38002;53.296;6.600;2023-04-06T22:12:46;25.65;;;16.48;;
51985;SDS011;38002;53.296;6.600;2023-04-06T22:17:48;22.55;;;16.20;;
51985;SDS011;38002;53.296;6.600;2023-04-06T22:22:49;23.15;;;15.52;;
51985;SDS011;38002;53.296;6.600;2023-04-06T22:27:49;22.05;;;13.40;;
51985;SDS011;38002;53.296;6.600;2023-04-06T22:32:50;15.77;;;11.80;;
51985;SDS011;38002;53.296;6.600;2023-04-06T22:37:50;19.42;;;10.52;;
51985;SDS011;38002;53.296;6.600;2023-04-06T22:42:51;15.25;;;9.95;;
51985;SDS011;38002;53.296;6.600;2023-04-06T22:47:54;16.90;;;10.75;;
51985;SDS011;38002;53.296;6.600;2023-04-06T22:52:54;12.65;;;8.55;;
51985;SDS011;38002;53.296;6.600;2023-04-06T22:57:55;13.85;;;9.73;;
51985;SDS011;38002;53.296;6.600;2023-04-06T23:02:55;12.45;;;9.13;;
51985;SDS011;38002;53.296;6.600;2023-04-06T23:07:56;12.73;;;9.23;;
51985;SDS011;38002;53.296;6.600;2023-04-06T23:12:56;11.82;;;9.40;;
51985;SDS011;38002;53.296;6.600;2023-04-06T23:17:56;14.07;;;10.93;;
51985;SDS011;38002;53.296;6.600;2023-04-06T23:22:57;16.90;;;9.70;;
51985;SDS011;38002;53.296;6.600;2023-04-06T23:27:57;14.55;;;10.30;;
51985;SDS011;38002;53.296;6.600;2023-04-06T23:32:58;18.38;;;11.88;;
51985;SDS011;38002;53.296;6.600;2023-04-06T23:37:58;16.70;;;11.77;;
51985;SDS011;38002;53.296;6.600;2023-04-06T23:42:58;17.73;;;11.50;;
51985;SDS011;38002;53.296;6.600;2023-04-06T23:47:59;19.48;;;12.45;;
51985;SDS011;38002;53.296;6.600;2023-04-06T23:52:59;17.92;;;13.02;;
51985;SDS011;38002;53.296;6.600;2023-04-06T23:58:00;18.80;;;13.77;;
